Time;durP1;ratioP1;P1;durP2;ratioP2;P2;SDS_P1;SDS_P2;PMS_P1;PMS_P2;Temp;Humidity;BMP_temperature;BMP_pressure;BME280_temperature;BME280_humidity;BME280_pressure;Samples;Min_cycle;Max_cycle;Signal;HPM_P1;HPM_P2
2023/04/12 00:00:09;;;;;;;8.32;1.90;;;;;;;12.04;52.25;98942.19;4973640;28;20408;-88
2023/04/12 00:02:37;;;;;;;7.10;2.22;;;;;;;12.04;52.39;98944.03;4984130;28;20079;-88
2023/04/12 00:05:04;;;;;;;8.35;2.42;;;;;;;12.04;52.60;98942.19;4983314;28;20393;-87
2023/04/12 00:07:31;;;;;;;7.95;1.88;;;;;;;12.04;52.36;98933.47;4976532;28;20058;-90
2023/04/12 00:09:57;;;;;;;6.55;2.22;;;;;;;12.06;52.48;98926.28;4977345;28;20054;-87
2023/04/12 00:12:24;;;;;;;6.45;1.88;;;;;;;12.05;52.47;98920.19;4972083;28;20058;-87
2023/04/12 00:14:50;;;;;;;7.32;2.40;;;;;;;12.06;52.52;98910.47;4987669;28;20388;-86
2023/04/12 00:17:18;;;;;;;6.00;1.90;;;;;;;12.05;52.48;98900.84;4991164;28;20062;-88
2023/04/12 00:19:46;;;;;;;5.40;1.90;;;;;;;12.05;52.24;98903.50;4974120;28;20058;-87
2023/04/12 00:22:14;;;;;;;10.52;1.95;;;;;;;12.04;52.00;98909.72;4991710;28;20054;-91
2023/04/12 00:24:41;;;;;;;4.72;1.75;;;;;;;12.03;52.16;98914.16;4991691;28;20065;-89
2023/04/12 00:27:07;;;;;;;6.40;1.90;;;;;;;12.03;52.08;98908.88;4991071;28;20128;-91
2023/04/12 00:29:34;;;;;;;6.95;2.28;;;;;;;12.03;51.84;98902.78;4991749;28;20381;-87
2023/04/12 00:32:02;;;;;;;7.10;2.25;;;;;;;12.01;51.92;98900.25;4991653;28;20062;-87
2023/04/12 00:34:29;;;;;;;7.03;1.85;;;;;;;12.00;51.92;98898.56;4991558;28;20385;-89
2023/04/12 00:36:55;;;;;;;7.72;1.77;;;;;;;11.99;51.87;98895.09;4990775;28;20077;-89
2023/04/12 00:39:22;;;;;;;4.18;1.65;;;;;;;11.97;51.95;98891.72;4991635;28;20086;-87
2023/04/12 00:41:48;;;;;;;4.90;1.90;;;;;;;11.95;52.00;98891.00;4974204;28;20419;-87
2023/04/12 00:44:16;;;;;;;6.78;2.10;;;;;;;11.93;52.13;98890.28;4974621;28;20069;-87
2023/04/12 00:46:45;;;;;;;8.13;1.98;;;;;;;11.90;51.85;98877.34;4990864;28;20574;-88
2023/04/12 00:49:12;;;;;;;5.63;1.77;;;;;;;11.89;52.18;98869.56;4991293;28;20058;-87
2023/04/12 00:51:39;;;;;;;4.95;1.88;;;;;;;11.87;52.03;98869.66;4974250;28;20054;-87
2023/04/12 00:54:06;;;;;;;6.30;1.92;;;;;;;11.86;52.22;98860.91;4974280;28;20518;-87
2023/04/12 00:56:33;;;;;;;4.28;1.52;;;;;;;11.84;52.23;98857.56;4990823;28;20480;-84
2023/04/12 00:59:00;;;;;;;6.38;1.83;;;;;;;11.84;52.26;98860.19;4991605;28;20065;-89
2023/04/12 01:01:27;;;;;;;8.65;1.90;;;;;;;11.83;52.25;98855.88;4991187;28;20093;-87
2023/04/12 01:03:59;;;;;;;6.20;1.77;;;;;;;11.83;52.34;98836.59;4974124;28;20086;-86
2023/04/12 01:06:39;;;;;;;5.85;1.92;;;;;;;11.82;52.09;98833.09;4990793;28;20062;-86
2023/04/12 01:09:39;;;;;;;5.05;1.50;;;;;;;11.78;51.36;98844.81;4991435;28;20066;-88
2023/04/12 01:12:40;;;;;;;5.35;1.55;;;;;;;11.78;51.30;98826.38;4991273;28;20061;-89
2023/04/12 01:15:10;;;;;;;6.85;1.90;;;;;;;11.78;52.16;98820.28;4973451;28;20054;-87
2023/04/12 01:17:48;;;;;;;6.40;1.73;;;;;;;11.76;52.24;98822.19;4973705;28;20062;-89
2023/04/12 01:20:20;;;;;;;7.70;2.33;;;;;;;11.75;52.20;98813.44;4958523;28;20094;-87
2023/04/12 01:23:02;;;;;;;7.30;1.70;;;;;;;11.72;52.20;98811.91;4977579;28;20070;-86
2023/04/12 01:25:47;;;;;;;11.05;1.80;;;;;;;11.70;52.20;98811.16;4994605;28;20047;-86
2023/04/12 01:28:19;;;;;;;5.75;1.63;;;;;;;11.73;52.74;98796.91;4977119;28;20058;-87
2023/04/12 01:30:49;;;;;;;6.05;2.22;;;;;;;11.72;52.77;98787.31;4995101;28;20539;-87
2023/04/12 01:33:17;;;;;;;9.25;2.17;;;;;;;11.73;53.02;98781.06;4994963;28;20475;-87
2023/04/12 01:35:45;;;;;;;8.25;1.92;;;;;;;11.72;52.79;98768.88;4976877;28;20062;-86
2023/04/12 01:38:12;;;;;;;5.90;1.92;;;;;;;11.73;52.98;98775.81;4994582;28;20061;-87
2023/04/12 01:40:42;;;;;;;4.25;1.67;;;;;;;11.73;53.05;98770.53;4994569;28;20411;-88
2023/04/12 01:43:13;;;;;;;5.75;1.77;;;;;;;11.71;52.30;98762.75;4977244;28;20083;-88
2023/04/12 01:45:39;;;;;;;11.40;2.33;;;;;;;11.73;53.17;98752.06;4976692;28;20054;-88
2023/04/12 01:48:10;;;;;;;4.45;1.80;;;;;;;11.71;52.23;98754.84;4993664;28;20062;-86
2023/04/12 01:50:48;;;;;;;5.10;1.73;;;;;;;11.71;52.18;98761.91;4994146;28;20090;-88
2023/04/12 01:53:26;;;;;;;5.10;1.77;;;;;;;11.71;51.67;98759.28;4994423;28;20058;-87
2023/04/12 01:55:58;;;;;;;6.70;1.73;;;;;;;11.72;52.30;98758.31;4994194;28;20054;-89
2023/04/12 01:58:25;;;;;;;5.47;1.58;;;;;;;11.72;52.84;98758.31;4993802;28;20066;-87
2023/04/12 02:00:55;;;;;;;6.43;2.30;;;;;;;11.70;52.41;98754.97;4993940;28;20077;-88
2023/04/12 02:03:23;;;;;;;7.55;1.98;;;;;;;11.67;52.63;98748.13;4994616;28;20146;-88
2023/04/12 02:05:51;;;;;;;8.52;2.30;;;;;;;11.64;52.66;98740.47;4993712;28;20061;-88
2023/04/12 02:08:17;;;;;;;5.30;1.90;;;;;;;11.61;52.65;98740.69;4993494;28;20054;-86
2023/04/12 02:10:43;;;;;;;4.70;1.75;;;;;;;11.59;52.97;98742.63;4993956;28;20055;-88
2023/04/12 02:13:10;;;;;;;8.90;2.10;;;;;;;11.56;52.56;98743.69;4993738;28;20058;-89
2023/04/12 02:15:37;;;;;;;7.13;2.03;;;;;;;11.54;53.02;98729.81;4993658;28;20117;-90
2023/04/12 02:18:04;;;;;;;7.80;2.00;;;;;;;11.52;52.97;98730.88;4993494;28;20451;-87
2023/04/12 02:20:30;;;;;;;6.53;2.08;;;;;;;11.51;53.19;98716.03;4993567;28;20069;-87
2023/04/12 02:22:56;;;;;;;5.95;2.70;;;;;;;11.50;53.27;98709.06;4993553;28;20465;-88
2023/04/12 02:25:23;;;;;;;4.93;1.60;;;;;;;11.50;53.41;98706.44;4993125;28;20062;-90
2023/04/12 02:27:50;;;;;;;3.53;1.27;;;;;;;11.50;53.50;98702.00;4993098;28;20058;-88
2023/04/12 02:30:16;;;;;;;4.63;1.60;;;;;;;11.52;53.68;98689.56;4976404;28;20069;-87
2023/04/12 02:32:44;;;;;;;9.38;2.20;;;;;;;11.55;53.70;98689.31;4992664;28;20058;-87
2023/04/12 02:35:13;;;;;;;6.03;1.60;;;;;;;11.56;53.69;98675.16;4975617;28;20046;-87
2023/04/12 02:37:40;;;;;;;5.13;1.77;;;;;;;11.58;53.69;98661.88;4993252;28;20089;-87
2023/04/12 02:40:10;;;;;;;8.38;1.88;;;;;;;11.58;53.49;98654.81;4993338;28;20700;-88
2023/04/12 02:42:36;;;;;;;3.85;1.52;;;;;;;11.60;53.49;98647.59;4993342;28;20054;-88
2023/04/12 02:45:03;;;;;;;8.20;1.90;;;;;;;11.60;53.47;98649.41;4975314;28;20058;-85
2023/04/12 02:47:30;;;;;;;6.40;1.80;;;;;;;11.60;53.52;98650.25;4992916;28;20054;-88
2023/04/12 02:49:57;;;;;;;10.73;1.92;;;;;;;11.60;53.90;98644.16;4993322;28;20100;-88
2023/04/12 02:52:23;;;;;;;5.57;1.95;;;;;;;11.60;53.50;98637.06;4993177;28;20562;-87
2023/04/12 02:54:51;;;;;;;4.45;1.80;;;;;;;11.59;53.60;98630.13;4992996;28;20101;-87
2023/04/12 02:57:19;;;;;;;5.13;2.00;;;;;;;11.61;53.77;98624.72;4992514;28;20554;-87
2023/04/12 02:59:47;;;;;;;8.02;2.00;;;;;;;11.61;53.61;98616.81;4993132;28;20134;-89
2023/04/12 03:02:14;;;;;;;6.05;2.00;;;;;;;11.59;53.67;98614.31;4993433;28;20076;-88
2023/04/12 03:04:41;;;;;;;6.65;1.50;;;;;;;11.58;53.63;98612.63;4975583;28;20054;-84
2023/04/12 03:07:07;;;;;;;5.38;1.90;;;;;;;11.57;53.81;98620.66;4974935;28;20105;-90
2023/04/12 03:09:33;;;;;;;6.63;1.95;;;;;;;11.54;53.80;98611.19;4975421;28;20062;-88
2023/04/12 03:12:00;;;;;;;5.55;1.80;;;;;;;11.49;53.58;98615.16;4992880;28;20054;-90
2023/04/12 03:14:27;;;;;;;7.47;2.03;;;;;;;11.46;54.06;98609.19;4992763;28;20057;-87
2023/04/12 03:16:53;;;;;;;6.32;1.85;;;;;;;11.45;54.24;98601.41;4974792;28;20058;-87
2023/04/12 03:19:20;;;;;;;5.93;1.90;;;;;;;11.42;54.66;98580.56;4975191;28;20054;-88
2023/04/12 03:21:46;;;;;;;5.60;1.77;;;;;;;11.43;54.75;98582.22;4975113;28;20129;-87
2023/04/12 03:24:13;;;;;;;5.05;1.70;;;;;;;11.41;54.94;98563.06;4992632;28;20117;-86
2023/04/12 03:26:41;;;;;;;5.07;1.38;;;;;;;11.42;55.11;98568.22;4991789;28;20185;-86
2023/04/12 03:29:07;;;;;;;7.75;1.98;;;;;;;11.41;55.17;98563.94;4975314;28;20121;-86
2023/04/12 03:31:36;;;;;;;6.70;2.38;;;;;;;11.43;55.35;98566.41;4992479;28;20054;-89
2023/04/12 03:34:03;;;;;;;5.43;1.85;;;;;;;11.43;55.48;98558.50;4975081;28;20054;-90
2023/04/12 03:36:30;;;;;;;4.30;1.50;;;;;;;11.43;55.80;98548.81;4974580;28;20054;-87
2023/04/12 03:38:56;;;;;;;6.00;1.75;;;;;;;11.43;55.93;98542.69;4974369;28;20513;-88
2023/04/12 03:41:23;;;;;;;4.90;1.58;;;;;;;11.45;56.04;98546.88;4992257;28;20105;-89
2023/04/12 03:43:49;;;;;;;5.80;1.77;;;;;;;11.45;55.83;98541.63;4974796;28;20470;-89
2023/04/12 03:46:16;;;;;;;7.63;1.70;;;;;;;11.47;56.34;98537.06;4991658;28;20130;-88
2023/04/12 03:48:42;;;;;;;3.88;1.60;;;;;;;11.49;56.03;98526.41;4991717;28;20101;-88
2023/04/12 03:51:11;;;;;;;3.50;1.55;;;;;;;11.48;55.91;98503.66;4974710;28;20058;-89
2023/04/12 03:53:38;;;;;;;5.50;1.73;;;;;;;11.49;56.08;98499.22;4992254;28;20050;-88
2023/04/12 03:56:05;;;;;;;4.45;2.00;;;;;;;11.47;56.07;98497.53;4991564;28;20062;-88
2023/04/12 03:58:32;;;;;;;4.05;1.75;;;;;;;11.47;55.95;98479.09;4974246;28;20058;-89
2023/04/12 04:01:04;;;;;;;7.22;1.95;;;;;;;11.44;55.89;98481.97;4974530;28;20050;-88
2023/04/12 04:03:33;;;;;;;3.95;1.63;;;;;;;11.45;56.26;98473.09;4991732;28;20062;-86
2023/04/12 04:06:01;;;;;;;7.10;1.95;;;;;;;11.44;56.20;98457.44;4974279;28;20101;-88
2023/04/12 04:08:28;;;;;;;6.75;1.75;;;;;;;11.44;56.19;98452.19;4974057;28;20121;-87
2023/04/12 04:10:59;;;;;;;8.43;1.88;;;;;;;11.40;55.90;98448.94;4991789;28;20058;-88
2023/04/12 04:13:25;;;;;;;4.05;1.45;;;;;;;11.41;56.45;98441.88;4974634;28;20396;-87
2023/04/12 04:15:59;;;;;;;4.60;1.38;;;;;;;11.37;55.85;98443.09;4991133;28;20058;-87
2023/04/12 04:21:18;;;;;;;5.35;1.50;;;;;;;11.33;56.44;98422.25;4989397;28;20407;-77
2023/04/12 04:23:46;;;;;;;5.07;1.67;;;;;;;11.30;56.47;98433.06;4989730;28;20450;-79
2023/04/12 04:26:14;;;;;;;4.60;1.40;;;;;;;11.26;56.65;98429.00;4989842;28;20058;-78
2023/04/12 04:28:43;;;;;;;3.85;1.63;;;;;;;11.24;56.59;98416.91;4997873;28;20047;-77
2023/04/12 04:31:11;;;;;;;6.30;1.73;;;;;;;11.21;56.66;98423.25;4993827;28;20070;-76
2023/04/12 04:33:39;;;;;;;6.28;1.77;;;;;;;11.19;56.87;98420.78;4990228;28;20101;-77
2023/04/12 04:36:06;;;;;;;4.78;1.75;;;;;;;11.18;57.19;98405.09;4991256;28;20058;-76
2023/04/12 04:38:33;;;;;;;6.57;2.00;;;;;;;11.17;57.09;98398.97;4991344;28;20120;-77
2023/04/12 04:41:03;;;;;;;3.25;1.30;;;;;;;11.18;57.47;98402.44;4991400;28;20046;-77
2023/04/12 04:43:30;;;;;;;4.93;1.60;;;;;;;11.18;57.49;98382.19;4977672;28;20057;-76
2023/04/12 04:45:57;;;;;;;8.95;1.52;;;;;;;11.20;57.53;98382.94;4983248;28;20144;-76
2023/04/12 04:48:24;;;;;;;5.15;1.40;;;;;;;11.23;57.54;98388.88;4990600;28;20451;-76
2023/04/12 04:50:50;;;;;;;6.07;1.90;;;;;;;11.24;57.62;98382.66;4990767;28;20519;-77
2023/04/12 04:53:18;;;;;;;6.75;1.65;;;;;;;11.25;57.67;98384.34;4990583;28;20684;-77
2023/04/12 04:55:46;;;;;;;9.82;1.58;;;;;;;11.27;57.78;98377.13;4990946;28;20058;-77
2023/04/12 04:58:15;;;;;;;4.65;1.55;;;;;;;11.27;57.53;98369.25;4994251;28;20350;-77
2023/04/12 05:00:43;;;;;;;6.15;1.60;;;;;;;11.29;57.82;98375.22;4977527;28;20077;-77
2023/04/12 05:03:10;;;;;;;5.03;1.60;;;;;;;11.29;57.75;98370.78;4994806;28;20062;-77
2023/04/12 05:05:37;;;;;;;3.83;1.42;;;;;;;11.30;57.91;98348.78;4994320;28;20050;-76
2023/04/12 05:08:04;;;;;;;9.25;3.25;;;;;;;11.29;57.88;98349.72;4983743;28;20050;-77
2023/04/12 05:10:31;;;;;;;4.78;1.58;;;;;;;11.31;57.81;98346.94;4994039;28;20093;-76
2023/04/12 05:12:57;;;;;;;4.18;1.17;;;;;;;11.32;57.91;98351.25;4994029;28;20077;-77
2023/04/12 05:15:24;;;;;;;11.43;1.88;;;;;;;11.32;57.90;98341.56;4994751;28;20733;-77
2023/04/12 05:17:50;;;;;;;3.72;1.27;;;;;;;11.33;57.89;98339.78;4994818;28;20069;-76
2023/04/12 05:20:17;;;;;;;4.65;1.70;;;;;;;11.34;58.10;98338.81;4995182;28;20062;-76
2023/04/12 05:22:44;;;;;;;4.10;1.60;;;;;;;11.35;58.14;98345.72;4993624;28;20495;-76
2023/04/12 05:25:10;;;;;;;4.97;1.70;;;;;;;11.38;57.99;98339.38;4994534;28;20061;-77
2023/04/12 05:27:37;;;;;;;4.32;1.42;;;;;;;11.39;58.27;98336.63;4994642;28;20141;-77
2023/04/12 05:30:04;;;;;;;5.57;1.50;;;;;;;11.41;58.39;98339.13;4994838;28;20058;-76
2023/04/12 05:32:31;;;;;;;5.28;1.45;;;;;;;11.45;58.43;98327.38;4994623;28;20079;-77
2023/04/12 05:34:58;;;;;;;2.88;1.33;;;;;;;11.49;58.54;98330.56;4994295;28;20064;-76
2023/04/12 05:37:26;;;;;;;5.15;1.50;;;;;;;11.51;58.56;98326.03;4994329;28;20522;-77
2023/04/12 05:39:53;;;;;;;3.95;1.50;;;;;;;11.54;58.61;98326.59;4994633;28;20061;-77
2023/04/12 05:42:20;;;;;;;6.00;1.45;;;;;;;11.55;58.54;98309.00;4994586;28;20089;-77
2023/04/12 05:44:48;;;;;;;6.05;1.35;;;;;;;11.57;58.76;98312.31;4994341;28;20050;-77
2023/04/12 05:47:15;;;;;;;3.20;1.50;;;;;;;11.59;58.82;98313.84;4993791;28;20404;-77
2023/04/12 05:49:42;;;;;;;3.75;1.42;;;;;;;11.60;58.89;98310.25;4994292;28;20623;-77
2023/04/12 05:52:08;;;;;;;5.32;1.58;;;;;;;11.64;59.06;98312.63;4994160;28;20066;-77
2023/04/12 05:54:35;;;;;;;2.30;1.30;;;;;;;11.65;59.17;98309.88;4994184;28;20404;-77
2023/04/12 05:57:02;;;;;;;4.32;1.58;;;;;;;11.67;59.05;98313.19;4993508;28;20464;-78
2023/04/12 05:59:28;;;;;;;4.28;1.98;;;;;;;11.67;58.95;98296.56;4994067;28;20090;-77
2023/04/12 06:01:55;;;;;;;4.88;1.30;;;;;;;11.67;59.02;98296.56;4994185;28;20058;-77
2023/04/12 06:04:22;;;;;;;4.18;1.48;;;;;;;11.68;59.32;98290.31;4994123;28;20096;-77
2023/04/12 06:06:57;;;;;;;3.40;1.27;;;;;;;11.68;59.53;98298.22;4986214;28;20405;-77
2023/04/12 06:09:24;;;;;;;4.45;1.90;;;;;;;11.69;59.40;98284.91;4993888;28;20373;-77
2023/04/12 06:11:52;;;;;;;4.07;1.48;;;;;;;11.70;59.40;98291.03;4993993;28;20053;-77
2023/04/12 06:14:18;;;;;;;2.60;1.20;;;;;;;11.69;59.40;98284.06;4993704;28;20057;-78
2023/04/12 06:16:45;;;;;;;4.85;1.50;;;;;;;11.68;59.17;98283.25;4992472;28;20054;-78
2023/04/12 06:19:11;;;;;;;4.88;1.40;;;;;;;11.66;59.27;98277.25;4993657;28;20061;-78
2023/04/12 06:21:38;;;;;;;4.13;1.60;;;;;;;11.64;59.44;98271.31;5008613;28;20050;-78
2023/04/12 06:24:05;;;;;;;6.25;1.60;;;;;;;11.60;59.76;98254.09;5008850;28;20050;-78
2023/04/12 06:26:31;;;;;;;5.28;1.77;;;;;;;11.58;59.86;98253.38;4993179;28;20047;-78
2023/04/12 06:29:05;;;;;;;3.70;1.30;;;;;;;11.57;60.25;98259.59;4992004;28;20487;-78
2023/04/12 06:31:32;;;;;;;3.78;1.42;;;;;;;11.56;60.42;98250.84;4987765;28;20058;-78
2023/04/12 06:33:59;;;;;;;3.42;1.20;;;;;;;11.55;60.47;98236.00;4985417;28;20087;-78
2023/04/12 06:36:26;;;;;;;3.50;1.45;;;;;;;11.55;60.69;98238.66;4993236;28;20050;-78
2023/04/12 06:38:53;;;;;;;4.28;1.25;;;;;;;11.56;60.63;98228.97;4993051;28;20070;-78
2023/04/12 06:41:21;;;;;;;2.67;1.38;;;;;;;11.55;60.58;98235.19;4993456;28;20062;-78
2023/04/12 06:43:47;;;;;;;4.03;1.13;;;;;;;11.53;60.66;98226.56;4993333;28;20066;-78
2023/04/12 06:46:17;;;;;;;3.67;1.30;;;;;;;11.52;60.76;98224.91;4975477;28;20052;-78
2023/04/12 06:48:44;;;;;;;5.50;1.80;;;;;;;11.52;61.10;98228.41;4993098;28;20054;-78
2023/04/12 06:51:10;;;;;;;2.72;1.20;;;;;;;11.52;60.98;98224.91;4993451;28;20069;-78
2023/04/12 06:53:38;;;;;;;3.45;1.20;;;;;;;11.51;61.17;98217.97;4993180;28;20058;-78
2023/04/12 06:56:05;;;;;;;1.40;0.95;;;;;;;11.50;61.49;98206.59;4992827;28;20066;-78
2023/04/12 06:58:31;;;;;;;2.08;1.10;;;;;;;11.49;61.70;98212.84;4992540;28;20511;-78
2023/04/12 07:01:08;;;;;;;2.05;1.15;;;;;;;11.47;61.74;98191.88;4992717;28;20069;-78
2023/04/12 07:03:35;;;;;;;2.83;1.40;;;;;;;11.51;61.85;98192.44;4993198;28;20055;-78
2023/04/12 07:06:03;;;;;;;2.65;1.10;;;;;;;11.51;61.92;98192.44;4992545;28;20062;-78
2023/04/12 07:08:49;;;;;;;2.92;1.20;;;;;;;11.53;61.97;98187.06;4992468;28;20062;-78
2023/04/12 07:11:16;;;;;;;1.55;1.02;;;;;;;11.53;62.09;98189.69;4992660;28;20400;-79
2023/04/12 07:13:47;;;;;;;2.53;1.13;;;;;;;11.52;62.06;98190.66;4993010;28;20054;-78
2023/04/12 07:16:14;;;;;;;2.13;0.95;;;;;;;11.51;62.24;98181.09;4992550;28;20069;-78
2023/04/12 07:18:41;;;;;;;2.85;1.13;;;;;;;11.51;62.52;98181.09;4991977;28;20089;-78
2023/04/12 07:21:08;;;;;;;2.10;1.15;;;;;;;11.51;62.53;98176.63;4992485;28;20068;-78
2023/04/12 07:23:34;;;;;;;2.70;1.00;;;;;;;11.50;62.42;98164.44;4992517;28;20060;-78
2023/04/12 07:26:01;;;;;;;2.90;0.82;;;;;;;11.49;62.67;98165.41;4992048;28;20516;-78
2023/04/12 07:28:28;;;;;;;0.85;0.77;;;;;;;11.51;62.75;98168.72;4992192;28;20050;-78
2023/04/12 07:30:54;;;;;;;4.22;1.35;;;;;;;11.49;62.88;98152.25;4992476;28;20146;-78
2023/04/12 07:33:21;;;;;;;2.05;1.10;;;;;;;11.50;62.99;98148.63;4992508;28;20108;-78
2023/04/12 07:35:47;;;;;;;1.75;1.00;;;;;;;11.52;63.02;98149.34;4991933;28;20054;-78
2023/04/12 07:38:14;;;;;;;2.63;1.27;;;;;;;11.53;63.17;98142.25;4991867;28;20140;-78
2023/04/12 07:40:42;;;;;;;5.18;1.10;;;;;;;11.53;63.33;98142.25;4992222;28;20070;-79
2023/04/12 07:43:09;;;;;;;2.30;0.93;;;;;;;11.54;63.19;98133.38;4992230;28;20091;-78
2023/04/12 07:45:36;;;;;;;1.90;0.90;;;;;;;11.54;63.40;98131.59;4991942;28;20051;-78
2023/04/12 07:48:03;;;;;;;1.90;1.10;;;;;;;11.57;63.66;98126.06;4974353;28;20644;-78
2023/04/12 07:50:30;;;;;;;1.20;0.75;;;;;;;11.60;63.82;98124.94;4991879;28;20121;-78
2023/04/12 07:53:16;;;;;;;2.97;0.88;;;;;;;11.63;63.62;98134.38;4991857;28;20148;-78
2023/04/12 07:55:42;;;;;;;1.27;0.75;;;;;;;11.65;63.47;98124.53;4991737;28;20058;-78
2023/04/12 07:58:09;;;;;;;1.38;0.80;;;;;;;11.66;63.72;98108.59;4991629;28;20065;-78
2023/04/12 08:00:36;;;;;;;1.45;0.70;;;;;;;11.68;63.72;98119.00;4992007;28;20062;-77
2023/04/12 08:03:02;;;;;;;2.15;1.00;;;;;;;11.69;63.68;98110.09;4991753;28;20165;-77
2023/04/12 08:05:29;;;;;;;1.58;0.80;;;;;;;11.70;63.79;98123.16;4991305;28;20430;-77
2023/04/12 08:07:56;;;;;;;2.63;0.90;;;;;;;11.71;63.77;98108.19;4991227;28;20117;-77
2023/04/12 08:10:23;;;;;;;1.83;0.90;;;;;;;11.73;64.10;98111.50;4991629;28;20144;-77
2023/04/12 08:12:50;;;;;;;5.07;1.10;;;;;;;11.74;64.19;98113.19;4990608;28;20058;-77
2023/04/12 08:15:16;;;;;;;0.90;0.70;;;;;;;11.78;64.42;98104.03;4991143;28;20055;-77
2023/04/12 08:17:43;;;;;;;1.02;0.80;;;;;;;11.79;64.38;98102.22;4990954;28;20085;-77
2023/04/12 08:20:11;;;;;;;1.55;0.85;;;;;;;11.80;64.25;98112.63;4991578;28;20046;-77
2023/04/12 08:22:37;;;;;;;1.25;0.93;;;;;;;11.81;64.34;98098.47;4991413;28;20046;-77
2023/04/12 08:25:04;;;;;;;0.70;0.63;;;;;;;11.82;64.37;98097.50;4991277;28;20120;-77
2023/04/12 08:27:31;;;;;;;1.98;0.90;;;;;;;11.83;64.64;98098.34;4991133;28;20050;-77
2023/04/12 08:29:57;;;;;;;3.00;0.70;;;;;;;11.84;64.52;98092.09;4991070;28;20411;-77
2023/04/12 08:32:24;;;;;;;2.65;0.80;;;;;;;11.85;64.68;98097.25;4990896;28;20060;-77
2023/04/12 08:34:51;;;;;;;3.30;0.80;;;;;;;11.88;64.47;98105.88;4990978;28;20822;-77
2023/04/12 08:37:17;;;;;;;2.05;0.80;;;;;;;11.87;64.30;98102.38;4991056;28;20584;-77
2023/04/12 08:39:44;;;;;;;2.80;1.08;;;;;;;11.83;64.13;98095.72;4991490;28;20066;-78
2023/04/12 08:42:15;;;;;;;1.33;0.88;;;;;;;11.78;64.32;98093.47;4991337;28;20137;-77
2023/04/12 08:44:42;;;;;;;2.00;0.80;;;;;;;11.74;64.58;98086.84;4991245;28;20133;-77
2023/04/12 08:47:10;;;;;;;2.05;0.88;;;;;;;11.71;64.67;98082.66;4990470;28;20061;-77
2023/04/12 08:49:37;;;;;;;1.25;0.73;;;;;;;11.71;65.01;98081.84;4974394;28;20054;-77
2023/04/12 08:52:06;;;;;;;1.10;0.90;;;;;;;11.70;65.37;98080.16;4990977;28;20412;-77
2023/04/12 08:54:33;;;;;;;2.03;0.90;;;;;;;11.73;65.36;98085.16;4991525;28;20062;-77
2023/04/12 08:57:03;;;;;;;1.33;1.00;;;;;;;11.75;65.25;98077.09;4990394;28;20062;-77
2023/04/12 08:59:32;;;;;;;1.30;0.90;;;;;;;11.75;65.13;98082.38;4990037;28;20141;-77
2023/04/12 09:01:58;;;;;;;0.85;0.85;;;;;;;11.75;65.15;98077.09;4991060;28;20069;-77
2023/04/12 09:04:25;;;;;;;2.97;0.70;;;;;;;11.73;65.18;98074.59;4991085;28;20467;-77
2023/04/12 09:06:52;;;;;;;1.52;0.90;;;;;;;11.70;65.35;98069.63;4990405;28;20051;-77
2023/04/12 09:09:19;;;;;;;1.35;0.80;;;;;;;11.70;65.59;98061.72;4990180;28;20046;-77
2023/04/12 09:11:45;;;;;;;0.80;0.73;;;;;;;11.70;65.73;98073.06;4990568;28;20057;-77
2023/04/12 09:14:23;;;;;;;1.00;0.80;;;;;;;11.66;65.79;98055.06;4973543;28;20055;-77
2023/04/12 09:16:50;;;;;;;0.60;0.60;;;;;;;11.69;65.96;98052.13;4973029;28;20431;-77
2023/04/12 09:19:30;;;;;;;3.42;0.90;;;;;;;11.66;67.13;98052.41;4990984;28;20054;-77
2023/04/12 09:21:57;;;;;;;2.25;0.80;;;;;;;11.73;66.97;98051.72;4986647;28;20047;-78
2023/04/12 09:24:24;;;;;;;1.75;1.20;;;;;;;11.78;66.99;98040.75;4989478;28;20062;-77
2023/04/12 09:27:04;;;;;;;3.40;1.00;;;;;;;11.81;67.32;98040.47;4988515;28;20058;-78
2023/04/12 09:29:32;;;;;;;0.70;0.50;;;;;;;11.89;67.26;98046.88;4988140;28;20058;-77
2023/04/12 09:32:02;;;;;;;0.70;0.65;;;;;;;11.94;67.46;98034.94;4988075;28;20058;-77
2023/04/12 09:34:32;;;;;;;2.58;0.70;;;;;;;12.02;67.07;98047.44;4989196;28;20105;-77
2023/04/12 09:37:10;;;;;;;1.35;0.60;;;;;;;12.06;66.79;98048.00;4988510;28;20466;-77
2023/04/12 09:39:37;;;;;;;0.60;0.60;;;;;;;12.07;66.46;98045.25;4990613;28;20145;-77
2023/04/12 09:42:08;;;;;;;0.93;0.70;;;;;;;12.07;66.52;98034.69;4991892;28;20061;-77
2023/04/12 09:44:56;;;;;;;1.45;0.98;;;;;;;12.07;66.35;98037.31;4994314;28;20050;-77
2023/04/12 09:47:39;;;;;;;1.17;0.60;;;;;;;12.01;66.07;98043.13;4970109;28;20057;-77
2023/04/12 09:50:08;;;;;;;0.77;0.60;;;;;;;12.02;66.24;98047.44;4978829;28;20074;-77
2023/04/12 09:52:37;;;;;;;1.10;0.60;;;;;;;11.99;66.38;98040.63;4993685;28;20065;-78
2023/04/12 09:55:10;;;;;;;2.97;0.85;;;;;;;11.95;66.76;98035.75;4991853;28;20503;-77
2023/04/12 09:57:41;;;;;;;1.52;0.70;;;;;;;11.94;66.59;98040.22;4993161;28;20096;-77
2023/04/12 10:00:19;;;;;;;1.30;0.70;;;;;;;11.93;66.69;98037.72;4993400;28;20058;-77
2023/04/12 10:02:50;;;;;;;1.17;0.85;;;;;;;11.89;67.11;98031.06;4992166;28;20058;-77
2023/04/12 10:05:24;;;;;;;0.50;0.50;;;;;;;11.85;67.24;98028.69;4993542;28;20081;-77
2023/04/12 10:07:52;;;;;;;1.10;0.90;;;;;;;11.86;67.41;98024.25;4992150;28;20523;-77
2023/04/12 10:10:20;;;;;;;1.02;0.70;;;;;;;11.85;67.68;98020.78;4993170;28;20050;-77
2023/04/12 10:12:48;;;;;;;0.63;0.63;;;;;;;11.86;67.66;98035.63;5006854;28;20136;-77
2023/04/12 10:15:19;;;;;;;0.93;0.63;;;;;;;11.84;68.12;98027.03;4987750;28;20487;-77
2023/04/12 10:17:56;;;;;;;1.52;0.70;;;;;;;11.83;68.46;98021.91;4991857;28;20070;-77
2023/04/12 10:20:23;;;;;;;0.80;0.63;;;;;;;11.86;68.33;98022.44;5035682;23;20440;-86
2023/04/12 10:22:55;;;;;;;1.08;0.55;;;;;;;11.86;68.44;98030.34;4992640;28;20108;-90
2023/04/12 10:25:24;;;;;;;0.80;0.70;;;;;;;11.87;68.55;98028.56;4992873;28;20065;-89
2023/04/12 10:27:52;;;;;;;0.80;0.80;;;;;;;11.89;68.66;98020.50;5000242;28;20062;-86
2023/04/12 10:30:26;;;;;;;0.60;0.60;;;;;;;11.84;68.65;98016.50;4993643;28;20120;-88
2023/04/12 10:33:02;;;;;;;1.55;0.98;;;;;;;11.82;68.74;98021.06;4993824;28;20077;-91
2023/04/12 10:35:47;;;;;;;0.90;0.80;;;;;;;11.82;68.50;98021.06;4993152;28;20056;-92
2023/04/12 10:38:14;;;;;;;0.70;0.70;;;;;;;11.78;68.75;98014.38;4993331;28;20081;-87
2023/04/12 10:41:12;;;;;;;2.78;0.70;;;;;;;11.68;69.14;98014.41;4993745;28;20638;-89
2023/04/12 10:43:46;;;;;;;1.50;0.90;;;;;;;11.69;69.38;98012.59;4993336;28;20055;-89
2023/04/12 10:46:38;;;;;;;0.80;0.80;;;;;;;11.63;69.91;98005.25;4992862;28;20061;-92
2023/04/12 10:49:08;;;;;;;0.77;0.70;;;;;;;11.65;70.19;98008.56;4993569;28;20093;-90
2023/04/12 10:51:35;;;;;;;1.77;0.90;;;;;;;11.64;70.30;98001.63;4993263;28;20069;-90
2023/04/12 10:54:17;;;;;;;1.50;0.80;;;;;;;11.62;71.28;97998.31;4992389;28;20055;-88
2023/04/12 10:56:48;;;;;;;1.27;0.90;;;;;;;11.67;71.43;97996.09;4991177;28;20065;-90
2023/04/12 10:59:15;;;;;;;2.47;1.15;;;;;;;11.70;72.09;97998.47;4993394;28;20046;-92
2023/04/12 11:02:11;;;;;;;1.08;0.98;;;;;;;11.72;72.20;97993.88;4993071;28;20066;-90
2023/04/12 11:05:08;;;;;;;1.40;1.30;;;;;;;11.81;72.86;98002.75;4993246;28;20149;-87
2023/04/12 11:07:41;;;;;;;1.25;1.10;;;;;;;11.93;73.08;98000.81;5001378;28;20049;-85
2023/04/12 11:10:15;;;;;;;1.35;1.25;;;;;;;12.01;73.31;97993.03;4992865;28;20065;-88
2023/04/12 11:12:54;;;;;;;1.30;1.20;;;;;;;12.11;73.20;97987.75;4992857;28;20097;-86
2023/04/12 11:15:25;;;;;;;1.50;1.40;;;;;;;12.21;73.36;97988.59;4975115;28;20058;-89
2023/04/12 11:17:56;;;;;;;1.20;1.02;;;;;;;12.30;73.32;97991.34;4992711;28;20085;-87
2023/04/12 11:20:26;;;;;;;1.30;1.20;;;;;;;12.41;73.63;97980.59;4992840;28;20051;-88
2023/04/12 11:22:53;;;;;;;1.38;1.27;;;;;;;12.52;73.67;97987.53;4975276;28;20101;-89
2023/04/12 11:25:20;;;;;;;1.30;1.20;;;;;;;12.62;73.29;97982.22;4989462;28;20081;-88
2023/04/12 11:27:51;;;;;;;1.05;0.65;;;;;;;12.68;72.10;97986.09;4992003;28;20145;-89
2023/04/12 11:30:19;;;;;;;0.82;0.82;;;;;;;12.76;72.12;97979.09;4991255;28;20053;-87
2023/04/12 11:32:46;;;;;;;1.40;0.90;;;;;;;12.83;72.23;97987.28;4992445;28;20093;-91
2023/04/12 11:35:18;;;;;;;0.90;0.90;;;;;;;12.85;71.13;97982.69;4991924;28;20100;-87
2023/04/12 11:37:45;;;;;;;0.65;0.65;;;;;;;12.89;71.33;97986.69;4990685;28;20061;-84
2023/04/12 11:40:11;;;;;;;0.77;0.77;;;;;;;12.90;70.80;97983.06;4992276;28;20062;-88
2023/04/12 11:42:39;;;;;;;0.93;0.90;;;;;;;12.89;70.34;97972.66;4992291;28;20053;-93
2023/04/12 11:45:06;;;;;;;0.90;0.90;;;;;;;12.86;70.39;97988.81;4974821;28;20101;-88